createdAt,value
2019-03-19T00:00:53.450Z,60.05
2019-03-19T00:03:27.991Z,56.23
2019-03-19T00:06:02.321Z,59.23
2019-03-19T00:08:36.762Z,62.58
2019-03-19T00:11:11.151Z,60.00
2019-03-19T00:13:45.669Z,57.43
2019-03-19T00:16:19.889Z,63.73
2019-03-19T00:18:54.128Z,55.92
2019-03-19T00:21:28.344Z,55.25
2019-03-19T00:24:02.511Z,60.23
2019-03-19T00:26:36.696Z,56.08
2019-03-19T00:29:10.921Z,58.78
2019-03-19T00:31:45.131Z,58.13
2019-03-19T00:34:19.367Z,61.42
2019-03-19T00:36:53.787Z,58.98
2019-03-19T00:39:27.991Z,60.28
2019-03-19T00:42:02.416Z,56.88
2019-03-19T00:44:36.616Z,60.52
2019-03-19T00:47:11.000Z,56.92
2019-03-19T00:49:45.049Z,55.25
2019-03-19T00:52:19.414Z,62.48
2019-03-19T00:54:53.657Z,57.83
2019-03-19T00:57:27.841Z,57.55
2019-03-19T01:00:02.151Z,61.08
2019-03-19T01:02:36.694Z,56.60
2019-03-19T01:05:11.185Z,58.48
2019-03-19T01:07:45.383Z,57.75
2019-03-19T01:10:19.574Z,55.85
2019-03-19T01:12:53.699Z,58.85
2019-03-19T01:15:28.188Z,56.18
2019-03-19T01:18:02.369Z,61.58
2019-03-19T01:20:36.489Z,58.55
2019-03-19T01:23:10.685Z,59.33
2019-03-19T01:25:55.167Z,63.00
2019-03-19T01:28:20.831Z,67.80
2019-03-19T01:30:55.116Z,63.28
2019-03-19T01:33:29.528Z,58.95
2019-03-19T01:36:03.645Z,61.20
2019-03-19T01:38:37.875Z,61.00
2019-03-19T01:41:12.082Z,67.35
2019-03-19T01:43:46.542Z,79.67
2019-03-19T01:46:20.989Z,78.60
2019-03-19T01:48:55.348Z,75.05
2019-03-19T01:51:29.369Z,68.97
2019-03-19T01:54:03.300Z,68.25
2019-03-19T01:56:37.443Z,72.47
2019-03-19T01:59:11.702Z,68.05
2019-03-19T02:01:46.372Z,71.40
2019-03-19T02:04:20.569Z,66.97
2019-03-19T02:06:54.950Z,69.03
2019-03-19T02:09:29.109Z,69.70
2019-03-19T02:12:03.523Z,65.03
2019-03-19T02:14:37.567Z,71.92
2019-03-19T02:17:12.772Z,68.70
2019-03-19T02:19:47.128Z,70.45
2019-03-19T02:22:21.438Z,73.10
2019-03-19T02:24:56.405Z,71.85
2019-03-19T02:27:30.689Z,75.67
2019-03-19T02:30:05.080Z,74.95
2019-03-19T02:32:39.700Z,74.30
2019-03-19T02:35:13.901Z,73.33
2019-03-19T02:37:48.332Z,72.58
2019-03-19T02:40:22.718Z,76.75
2019-03-19T02:42:57.297Z,70.60
2019-03-19T02:45:31.446Z,80.12
2019-03-19T02:48:05.765Z,69.60
2019-03-19T02:50:39.807Z,74.97
2019-03-19T02:53:13.732Z,75.97
2019-03-19T02:55:47.731Z,74.25
2019-03-19T02:58:22.074Z,81.05
2019-03-19T03:00:56.204Z,79.12
2019-03-19T03:03:30.291Z,80.22
2019-03-19T03:06:04.516Z,78.25
2019-03-19T03:08:38.621Z,75.25
2019-03-19T03:11:12.744Z,78.60
2019-03-19T03:13:47.078Z,83.40
2019-03-19T03:16:21.310Z,79.25
2019-03-19T03:18:55.247Z,81.70
2019-03-19T03:21:29.038Z,78.55
2019-03-19T03:24:02.863Z,73.20
2019-03-19T03:26:47.784Z,80.00
2019-03-19T03:29:11.885Z,78.15
2019-03-19T03:31:45.914Z,76.35
2019-03-19T03:34:20.640Z,83.15
2019-03-19T03:36:54.990Z,122.22
2019-03-19T03:39:28.955Z,117.00
2019-03-19T03:42:03.557Z,119.47
2019-03-19T03:44:37.722Z,129.50
2019-03-19T03:47:12.278Z,118.33
2019-03-19T03:49:46.436Z,111.35
2019-03-19T03:52:20.690Z,127.17
2019-03-19T03:54:54.761Z,108.15
2019-03-19T03:57:29.140Z,109.27
2019-03-19T04:00:03.393Z,110.85
2019-03-19T04:02:37.928Z,96.15
2019-03-19T04:05:12.689Z,100.40
2019-03-19T04:07:47.062Z,110.52
2019-03-19T04:10:21.546Z,122.82
2019-03-19T04:12:55.718Z,117.97
2019-03-19T04:15:30.061Z,107.60
2019-03-19T04:18:04.173Z,109.35
2019-03-19T04:20:38.699Z,104.45
2019-03-19T04:23:12.900Z,101.67
2019-03-19T04:25:47.284Z,109.15
2019-03-19T04:28:21.340Z,94.52
2019-03-19T04:30:55.347Z,100.25
2019-03-19T04:33:29.530Z,100.87
2019-03-19T04:36:03.920Z,107.03
2019-03-19T04:38:38.165Z,113.28
2019-03-19T04:41:13.484Z,122.20
2019-03-19T04:43:47.711Z,116.80
2019-03-19T04:46:22.018Z,134.67
2019-03-19T04:48:56.252Z,137.40
2019-03-19T04:51:31.616Z,152.68
2019-03-19T04:54:06.984Z,145.92
2019-03-19T04:56:41.420Z,137.92
2019-03-19T04:59:15.597Z,123.87
2019-03-19T05:01:49.812Z,133.93
2019-03-19T05:04:23.974Z,357.12
2019-03-19T05:06:58.087Z,258.68
2019-03-19T05:09:32.549Z,230.25
2019-03-19T05:12:06.987Z,264.20
2019-03-19T05:14:42.540Z,209.18
2019-03-19T05:17:16.734Z,179.65
2019-03-19T05:19:51.280Z,185.78
2019-03-19T05:22:25.765Z,185.07
2019-03-19T05:24:59.887Z,153.20
2019-03-19T05:27:37.653Z,152.35
2019-03-19T05:30:10.879Z,159.05
2019-03-19T05:32:45.041Z,155.52
2019-03-19T05:35:19.080Z,136.15
2019-03-19T05:37:53.313Z,116.35
2019-03-19T05:40:27.507Z,125.72
2019-03-19T05:43:01.725Z,122.70
2019-03-19T05:45:35.786Z,115.97
2019-03-19T05:48:10.059Z,103.42
2019-03-19T05:50:44.415Z,109.97
2019-03-19T05:53:18.618Z,97.42
2019-03-19T05:55:52.987Z,102.22
2019-03-19T05:58:27.218Z,98.90
2019-03-19T06:01:01.707Z,98.27
2019-03-19T06:03:35.868Z,91.20
2019-03-19T06:06:10.114Z,97.60
2019-03-19T06:08:44.330Z,95.28
2019-03-19T06:11:18.967Z,97.53
2019-03-19T06:13:53.077Z,96.10
2019-03-19T06:16:27.492Z,100.05
2019-03-19T06:19:01.670Z,91.08
2019-03-19T06:21:36.292Z,90.35
2019-03-19T06:24:10.607Z,107.50
2019-03-19T06:26:44.914Z,90.40
2019-03-19T06:29:19.059Z,85.47
2019-03-19T06:31:53.520Z,102.58
2019-03-19T06:34:27.724Z,90.55
2019-03-19T06:37:02.261Z,91.80
2019-03-19T06:39:40.442Z,86.08
2019-03-19T06:42:14.856Z,95.28
2019-03-19T06:44:48.972Z,94.10
2019-03-19T06:47:23.222Z,100.95
2019-03-19T06:49:57.422Z,84.62
2019-03-19T06:52:31.657Z,79.72
2019-03-19T06:55:05.926Z,80.65
2019-03-19T06:57:39.908Z,78.33
2019-03-19T07:00:17.499Z,92.97
2019-03-19T07:02:51.476Z,90.12
2019-03-19T07:05:25.864Z,80.20
2019-03-19T07:08:00.099Z,76.95
2019-03-19T07:10:34.456Z,79.80
2019-03-19T07:13:08.655Z,73.65
2019-03-19T07:15:43.276Z,78.85
2019-03-19T07:18:17.511Z,74.55
2019-03-19T07:20:51.704Z,76.75
2019-03-19T07:23:25.690Z,75.35
2019-03-19T07:26:00.281Z,74.45
2019-03-19T07:28:34.366Z,72.97
2019-03-19T07:31:08.750Z,64.50
2019-03-19T07:33:42.983Z,65.97
2019-03-19T07:36:17.205Z,64.75
2019-03-19T07:38:51.392Z,58.00
2019-03-19T07:41:25.499Z,63.10
2019-03-19T07:43:59.681Z,68.35
2019-03-19T07:46:34.065Z,66.60
2019-03-19T07:49:08.247Z,57.15
2019-03-19T07:51:42.717Z,60.83
2019-03-19T07:54:16.825Z,55.67
2019-03-19T07:56:51.266Z,64.95
2019-03-19T07:59:25.318Z,57.60
2019-03-19T08:01:59.567Z,52.15
2019-03-19T08:04:33.735Z,52.35
2019-03-19T08:07:09.118Z,50.35
2019-03-19T08:09:43.734Z,50.70
2019-03-19T08:12:18.920Z,47.98
2019-03-19T08:14:53.050Z,55.00
2019-03-19T08:17:27.498Z,50.00
2019-03-19T08:20:02.049Z,55.55
2019-03-19T08:22:36.307Z,45.78
2019-03-19T08:25:11.759Z,52.60
2019-03-19T08:27:48.637Z,43.95
2019-03-19T08:30:25.324Z,39.40
2019-03-19T08:33:02.400Z,36.00
2019-03-19T08:35:39.182Z,47.33
2019-03-19T08:38:13.510Z,41.40
2019-03-19T08:40:50.996Z,37.42
2019-03-19T08:43:30.925Z,43.05
2019-03-19T08:46:06.966Z,35.00
2019-03-19T08:48:42.354Z,31.75
2019-03-19T08:51:17.412Z,37.23
2019-03-19T08:53:54.122Z,31.52
2019-03-19T08:56:32.791Z,39.27
2019-03-19T08:59:10.190Z,28.70
2019-03-19T09:01:44.667Z,33.15
2019-03-19T09:04:20.119Z,30.52
2019-03-19T09:06:55.286Z,31.52
2019-03-19T09:09:30.192Z,27.25
2019-03-19T09:12:04.479Z,29.48
2019-03-19T09:14:38.770Z,28.02
2019-03-19T09:17:14.324Z,29.65
2019-03-19T09:19:49.633Z,28.35
2019-03-19T09:22:29.576Z,27.95
2019-03-19T09:24:59.836Z,26.55
2019-03-19T09:27:34.243Z,24.37
2019-03-19T09:30:09.473Z,27.10
2019-03-19T09:32:43.659Z,25.10
2019-03-19T09:35:19.075Z,27.75
2019-03-19T09:37:58.386Z,29.05
2019-03-19T09:40:29.526Z,24.30
2019-03-19T09:43:03.442Z,27.25
2019-03-19T09:45:38.462Z,33.90
2019-03-19T09:48:12.470Z,29.82
2019-03-19T09:50:46.466Z,42.65
2019-03-19T09:53:20.620Z,36.28
2019-03-19T09:55:55.132Z,39.50
2019-03-19T09:58:29.496Z,33.25
2019-03-19T10:01:03.561Z,30.70
2019-03-19T10:03:37.821Z,32.70
2019-03-19T10:06:14.461Z,30.35
2019-03-19T10:08:49.052Z,30.80
2019-03-19T10:11:23.345Z,29.63
2019-03-19T10:13:57.495Z,27.62
2019-03-19T10:16:33.345Z,24.87
2019-03-19T10:19:07.638Z,21.73
2019-03-19T10:21:42.043Z,33.40
2019-03-19T10:24:16.067Z,33.92
2019-03-19T10:26:50.817Z,31.05
2019-03-19T10:29:24.825Z,27.48
2019-03-19T10:31:59.332Z,28.85
2019-03-19T10:34:33.459Z,30.48
2019-03-19T10:37:07.882Z,25.10
2019-03-19T10:39:42.142Z,22.13
2019-03-19T10:42:16.544Z,28.73
2019-03-19T10:44:50.916Z,20.90
2019-03-19T10:47:25.352Z,23.05
2019-03-19T10:49:59.636Z,23.60
2019-03-19T10:52:34.261Z,21.87
2019-03-19T10:55:09.104Z,22.10
2019-03-19T10:57:43.383Z,21.40
2019-03-19T11:00:20.391Z,22.93
2019-03-19T11:02:55.025Z,22.35
2019-03-19T11:05:29.197Z,22.02
2019-03-19T11:08:03.435Z,20.77
2019-03-19T11:10:37.735Z,19.85
2019-03-19T11:13:12.167Z,18.52
2019-03-19T11:15:46.562Z,18.98
2019-03-19T11:18:20.639Z,19.75
2019-03-19T11:21:03.725Z,17.17
2019-03-19T11:23:33.402Z,23.50
2019-03-19T11:26:07.814Z,22.50
2019-03-19T11:28:42.236Z,22.90
2019-03-19T11:31:16.510Z,17.95
2019-03-19T11:33:50.900Z,18.42
2019-03-19T11:36:25.064Z,16.85
2019-03-19T11:38:59.574Z,14.38
2019-03-19T11:41:33.753Z,17.67
2019-03-19T11:44:08.503Z,17.98
2019-03-19T11:46:42.837Z,16.67
2019-03-19T11:49:17.185Z,18.45
2019-03-19T11:51:52.449Z,16.42
2019-03-19T11:54:27.117Z,17.77
2019-03-19T11:57:01.313Z,14.00
2019-03-19T11:59:35.811Z,15.65
2019-03-19T12:02:10.317Z,12.98
2019-03-19T12:04:44.677Z,13.90
2019-03-19T12:07:18.910Z,16.95
2019-03-19T12:09:53.265Z,15.95
2019-03-19T12:12:27.855Z,16.27
2019-03-19T12:15:02.187Z,16.02
2019-03-19T12:17:36.424Z,19.70
2019-03-19T12:20:10.715Z,15.53
2019-03-19T12:22:45.456Z,14.43
2019-03-19T12:25:19.397Z,13.40
2019-03-19T12:27:53.767Z,19.98
2019-03-19T12:30:28.088Z,18.17
2019-03-19T12:33:02.440Z,14.38
2019-03-19T12:35:36.652Z,16.82
2019-03-19T12:38:11.013Z,16.07
2019-03-19T12:40:45.339Z,16.37
2019-03-19T12:43:19.738Z,14.30
2019-03-19T12:45:54.526Z,11.95
2019-03-19T12:48:28.731Z,16.45
2019-03-19T12:51:03.011Z,16.82
2019-03-19T12:53:37.471Z,17.23
2019-03-19T12:56:11.854Z,19.12
2019-03-19T12:58:46.285Z,15.63
2019-03-19T13:01:20.616Z,15.88
2019-03-19T13:03:54.659Z,14.43
2019-03-19T13:06:28.951Z,15.93
2019-03-19T13:09:03.298Z,13.30
2019-03-19T13:11:37.701Z,14.93
2019-03-19T13:14:12.193Z,14.18
2019-03-19T13:16:46.375Z,16.57
2019-03-19T13:19:20.688Z,44.63
2019-03-19T13:21:55.088Z,53.17
2019-03-19T13:24:29.234Z,76.02
2019-03-19T13:27:03.344Z,81.45
2019-03-19T13:29:37.304Z,76.55
2019-03-19T13:32:11.625Z,103.95
2019-03-19T13:34:46.085Z,96.05
2019-03-19T13:37:20.343Z,91.80
2019-03-19T13:39:54.573Z,101.67
2019-03-19T13:42:28.780Z,73.40
2019-03-19T13:45:03.036Z,60.20
2019-03-19T13:47:37.576Z,65.55
2019-03-19T13:50:11.707Z,81.00
2019-03-19T13:52:46.120Z,78.92
2019-03-19T13:55:20.672Z,69.55
2019-03-19T13:57:55.029Z,73.17
2019-03-19T14:00:29.109Z,79.95
2019-03-19T14:03:03.695Z,67.37
2019-03-19T14:05:37.916Z,63.48
2019-03-19T14:08:12.159Z,59.63
2019-03-19T14:10:46.453Z,66.67
2019-03-19T14:13:20.801Z,69.37
2019-03-19T14:15:55.107Z,69.67
2019-03-19T14:18:29.607Z,66.45
2019-03-19T14:21:03.756Z,62.45
2019-03-19T14:23:38.438Z,64.60
2019-03-19T14:26:12.941Z,62.65
2019-03-19T14:28:47.210Z,60.05
2019-03-19T14:31:21.609Z,52.15
2019-03-19T14:33:57.024Z,45.78
2019-03-19T14:39:53.531Z,46.80
2019-03-19T14:42:28.111Z,53.05
2019-03-19T14:45:03.381Z,46.60
2019-03-19T14:47:37.680Z,50.28
2019-03-19T14:50:13.051Z,51.65
2019-03-19T14:52:47.425Z,53.38
2019-03-19T14:55:23.027Z,50.30
2019-03-19T14:57:57.489Z,49.30
2019-03-19T15:00:31.893Z,47.05
2019-03-19T15:03:06.394Z,52.85
2019-03-19T15:05:40.632Z,51.20
2019-03-19T15:08:15.427Z,49.18
2019-03-19T15:10:49.790Z,52.45
2019-03-19T15:13:24.157Z,47.70
2019-03-19T15:15:58.672Z,53.48
2019-03-19T15:18:33.072Z,58.87
2019-03-19T15:21:07.444Z,58.42
2019-03-19T15:23:41.910Z,49.38
2019-03-19T15:26:16.197Z,51.85
2019-03-19T15:28:50.852Z,56.98
2019-03-19T15:31:29.833Z,51.18
2019-03-19T15:34:01.215Z,54.13
2019-03-19T15:36:35.613Z,52.70
2019-03-19T15:39:11.766Z,63.00
2019-03-19T15:41:46.043Z,72.27
2019-03-19T15:44:20.424Z,77.50
2019-03-19T15:46:54.755Z,89.52
2019-03-19T15:49:37.887Z,57.20
2019-03-19T15:52:04.978Z,71.02
2019-03-19T15:54:39.792Z,58.90
2019-03-19T15:57:14.395Z,54.83
2019-03-19T15:59:49.176Z,72.35
2019-03-19T16:02:25.413Z,74.22
2019-03-19T16:05:00.849Z,60.48
2019-03-19T16:07:35.682Z,70.85
2019-03-19T16:10:10.299Z,60.33
2019-03-19T16:12:44.658Z,61.65
2019-03-19T16:15:19.707Z,58.30
2019-03-19T16:17:53.977Z,66.40
2019-03-19T16:20:28.215Z,71.45
2019-03-19T16:23:02.364Z,60.03
2019-03-19T16:25:36.658Z,62.65
2019-03-19T16:28:11.107Z,55.17
2019-03-19T16:30:45.048Z,60.20
2019-03-19T16:33:19.567Z,58.28
2019-03-19T16:35:54.135Z,58.23
2019-03-19T16:38:28.621Z,54.30
2019-03-19T16:41:03.378Z,63.08
2019-03-19T16:43:37.399Z,59.88
2019-03-19T16:46:11.809Z,55.90
2019-03-19T16:48:46.262Z,60.90
2019-03-19T16:51:20.711Z,64.22
2019-03-19T16:53:55.210Z,63.13
2019-03-19T16:56:30.584Z,66.67
2019-03-19T16:59:04.666Z,56.30
2019-03-19T17:01:39.184Z,57.23
2019-03-19T17:04:13.555Z,61.13
2019-03-19T17:06:47.932Z,59.75
2019-03-19T17:09:22.425Z,59.98
2019-03-19T17:11:56.884Z,54.18
2019-03-19T17:14:31.326Z,52.03
2019-03-19T17:17:05.622Z,54.33
2019-03-19T17:19:40.047Z,51.10
2019-03-19T17:22:14.140Z,50.20
2019-03-19T17:24:48.740Z,58.75
2019-03-19T17:27:23.890Z,47.78
2019-03-19T17:29:58.363Z,55.55
2019-03-19T17:32:32.676Z,49.55
2019-03-19T17:35:10.524Z,49.25
2019-03-19T17:37:44.969Z,57.88
2019-03-19T17:40:19.356Z,50.25
2019-03-19T17:42:53.834Z,55.33
2019-03-19T17:45:28.147Z,54.88
2019-03-19T17:48:02.443Z,52.80
2019-03-19T17:50:36.808Z,57.98
2019-03-19T17:53:11.409Z,50.88
2019-03-19T17:55:45.412Z,46.28
2019-03-19T17:58:19.799Z,54.55
2019-03-19T18:00:54.400Z,60.45
2019-03-19T18:03:28.606Z,58.00
2019-03-19T18:06:03.023Z,54.30
2019-03-19T18:08:37.315Z,52.23
2019-03-19T18:11:11.375Z,51.83
2019-03-19T18:13:45.919Z,46.90
2019-03-19T18:16:20.139Z,46.23
2019-03-19T18:18:54.280Z,48.98
2019-03-19T18:21:28.572Z,51.95
2019-03-19T18:24:03.080Z,47.58
2019-03-19T18:26:37.379Z,47.80
2019-03-19T18:29:11.648Z,48.90
2019-03-19T18:31:45.903Z,50.52
2019-03-19T18:34:20.331Z,46.63
2019-03-19T18:36:54.451Z,65.00
2019-03-19T18:39:29.282Z,76.95
2019-03-19T18:42:03.608Z,84.22
2019-03-19T18:44:37.787Z,96.08
2019-03-19T18:47:12.262Z,92.85
2019-03-19T18:49:46.565Z,89.07
2019-03-19T18:52:20.671Z,94.90
2019-03-19T18:54:54.902Z,100.22
2019-03-19T18:57:29.431Z,87.10
2019-03-19T19:00:03.823Z,83.82
2019-03-19T19:02:48.725Z,83.97
2019-03-19T19:05:14.624Z,92.12
2019-03-19T19:07:49.152Z,88.33
2019-03-19T19:10:23.413Z,87.82
2019-03-19T19:12:57.512Z,91.97
2019-03-19T19:15:31.746Z,79.30
2019-03-19T19:18:06.042Z,79.95
2019-03-19T19:20:40.152Z,81.00
2019-03-19T19:23:14.642Z,76.30
2019-03-19T19:25:49.055Z,78.95
2019-03-19T19:28:23.231Z,72.87
2019-03-19T19:30:57.984Z,70.35
2019-03-19T19:33:32.258Z,69.32
2019-03-19T19:36:06.477Z,73.33
2019-03-19T19:38:40.689Z,76.50
2019-03-19T19:41:15.170Z,77.95
2019-03-19T19:43:49.585Z,73.62
2019-03-19T19:46:23.809Z,73.02
2019-03-19T19:48:58.469Z,81.15
2019-03-19T19:51:33.011Z,73.05
2019-03-19T19:54:07.586Z,77.47
2019-03-19T19:56:41.688Z,67.37
2019-03-19T19:59:15.763Z,77.87
2019-03-19T20:01:50.148Z,84.95
2019-03-19T20:04:24.299Z,96.75
2019-03-19T20:06:58.465Z,118.00
2019-03-19T20:09:32.643Z,110.42
2019-03-19T20:12:07.009Z,102.47
2019-03-19T20:14:41.462Z,107.85
2019-03-19T20:17:15.890Z,91.53
2019-03-19T20:19:50.310Z,104.43
2019-03-19T20:22:24.696Z,93.90
2019-03-19T20:24:59.399Z,84.58
2019-03-19T20:27:35.427Z,78.97
2019-03-19T20:30:11.660Z,73.62
2019-03-19T20:32:46.377Z,86.25
2019-03-19T20:35:39.515Z,76.77
2019-03-19T20:38:13.896Z,85.40
2019-03-19T20:40:49.096Z,77.32
2019-03-19T20:43:23.409Z,76.22
2019-03-19T20:45:57.516Z,86.72
2019-03-19T20:48:32.228Z,84.30
2019-03-19T20:51:07.022Z,84.97
2019-03-19T20:53:41.281Z,81.20
2019-03-19T20:56:15.760Z,86.90
2019-03-19T20:58:50.035Z,82.40
2019-03-19T21:01:24.132Z,77.90
2019-03-19T21:03:58.674Z,89.35
2019-03-19T21:06:32.584Z,80.57
2019-03-19T21:09:08.001Z,80.85
2019-03-19T21:11:42.283Z,72.47
2019-03-19T21:14:16.864Z,75.70
2019-03-19T21:16:51.113Z,75.65
2019-03-19T21:19:25.548Z,74.70
2019-03-19T21:22:00.692Z,70.78
2019-03-19T21:24:35.160Z,74.55
2019-03-19T21:27:09.234Z,75.32
2019-03-19T21:29:43.664Z,75.80
2019-03-19T21:32:18.285Z,69.65
2019-03-19T21:34:52.919Z,72.78
2019-03-19T21:37:27.684Z,77.35
2019-03-19T21:40:02.128Z,73.42
2019-03-19T21:42:36.363Z,76.70
2019-03-19T21:45:11.543Z,72.92
2019-03-19T21:47:47.089Z,68.80
2019-03-19T21:50:21.681Z,69.65
2019-03-19T21:52:55.956Z,68.45
2019-03-19T21:55:30.299Z,72.42
2019-03-19T21:58:04.957Z,70.10
2019-03-19T22:00:39.378Z,75.22
2019-03-19T22:03:13.570Z,74.55
2019-03-19T22:05:47.533Z,67.20
2019-03-19T22:08:21.791Z,67.12
2019-03-19T22:10:55.913Z,74.27
2019-03-19T22:13:30.089Z,78.65
2019-03-19T22:16:04.451Z,75.60
2019-03-19T22:18:38.579Z,94.13
2019-03-19T22:21:12.788Z,100.65
2019-03-19T22:23:47.352Z,97.45
2019-03-19T22:26:21.874Z,96.42
2019-03-19T22:28:56.245Z,88.87
2019-03-19T22:31:30.751Z,93.27
2019-03-19T22:34:13.686Z,92.33
2019-03-19T22:36:41.187Z,87.85
2019-03-19T22:39:15.375Z,88.82
2019-03-19T22:41:49.717Z,78.50
2019-03-19T22:44:24.049Z,76.87
2019-03-19T22:46:58.228Z,78.47
2019-03-19T22:49:32.258Z,76.28
2019-03-19T22:52:06.618Z,75.08
2019-03-19T22:54:40.845Z,66.02
2019-03-19T22:57:14.999Z,79.87
2019-03-19T22:59:49.354Z,70.00
2019-03-19T23:02:24.148Z,74.77
2019-03-19T23:04:58.383Z,70.40
2019-03-19T23:07:32.796Z,75.40
2019-03-19T23:10:07.569Z,69.55
2019-03-19T23:12:42.254Z,68.95
2019-03-19T23:15:16.772Z,67.80
2019-03-19T23:17:51.438Z,67.30
2019-03-19T23:20:25.681Z,70.62
2019-03-19T23:22:59.975Z,64.72
2019-03-19T23:25:34.181Z,67.20
2019-03-19T23:28:08.436Z,73.40
2019-03-19T23:30:43.012Z,65.30
2019-03-19T23:33:17.538Z,73.33
2019-03-19T23:35:51.793Z,72.97
2019-03-19T23:38:26.185Z,70.67
2019-03-19T23:41:00.421Z,75.45
2019-03-19T23:43:34.865Z,73.57
2019-03-19T23:46:09.121Z,71.22
2019-03-19T23:48:43.234Z,69.07
2019-03-19T23:51:17.479Z,71.87
2019-03-19T23:53:51.727Z,74.47
2019-03-19T23:56:26.095Z,70.40
2019-03-19T23:59:00.655Z,71.62
